EST,Max TemperatureF,Mean TemperatureF,Min TemperatureF,Max Dew PointF,MeanDew PointF,Min DewpointF,Max Humidity, Mean Humidity, Min Humidity, Max Sea Level PressureIn, Mean Sea Level PressureIn, Min Sea Level PressureIn, Max VisibilityMiles, Mean VisibilityMiles, Min VisibilityMiles, Max Wind SpeedMPH, Mean Wind SpeedMPH, Max Gust SpeedMPH,PrecipitationIn, CloudCover, Events, WindDirDegrees
2012-12-1,90,82,75,73,69,64,94,67,40,29.99,29.92,29.89,19,7,5,22,12,,0.00,3,Rain,155
2012-12-2,89,80,70,68,63,55,88,57,25,29.96,29.91,29.83,19,8,6,20,10,,0.00,2,Rain,143
2012-12-3,86,77,68,69,67,64,94,68,41,29.92,29.86,29.80,19,7,6,13,5,,0.00,2,,51
2012-12-4,86,78,69,72,68,64,94,70,42,29.87,29.80,29.74,19,8,6,13,5,,0.00,1,,323
2012-12-5,89,80,72,75,72,68,89,71,49,29.83,29.79,29.74,19,7,6,16,7,,0.00,4,,322
2012-12-6,89,82,75,78,76,73,89,76,59,29.95,29.87,29.80,19,7,6,13,6,,0.00,3,,86
2012-12-7,93,86,78,77,72,68,89,67,41,30.01,29.94,29.89,19,7,6,21,10,,0.00,3,Rain,140
2012-12-8,91,83,75,72,67,61,89,61,34,30.01,29.94,29.86,19,7,6,21,12,,0.00,2,Rain,143
2012-12-9,89,82,75,70,65,59,73,57,30,29.94,29.89,29.83,19,7,2,22,13,,0.00,2,Rain,147
2012-12-10,91,82,73,72,68,63,94,69,36,29.94,29.88,29.83,19,6,1,26,13,32,0.28,3,Rain,158
2012-12-11,89,81,73,72,67,61,94,64,32,29.95,29.89,29.83,19,6,3,23,13,,0.00,3,Rain,150
2012-12-12,89,81,73,72,67,61,88,64,36,29.95,29.89,29.83,16,7,4,23,13,33,0.01,3,Rain,155
2012-12-13,89,81,73,72,69,63,89,68,37,29.95,29.90,29.86,19,7,4,25,12,30,0.04,3,Rain,157
2012-12-14,89,80,69,69,65,59,88,60,27,29.95,29.89,29.83,19,7,6,21,11,,0.00,1,,144
2012-12-15,89,76,64,67,63,51,94,64,18,29.91,29.85,29.77,19,8,6,13,4,,0.00,1,,351
2012-12-16,87,77,67,70,67,62,94,68,34,29.85,29.80,29.74,19,11,6,15,4,,0.00,6,,348
2012-12-17,88,80,71,73,70,66,94,71,42,29.86,29.80,29.74,19,7,6,13,4,,0.00,2,,3
2012-12-18,88,79,70,72,71,70,94,75,46,29.82,29.77,29.71,19,7,6,13,6,,0.00,1,,333
2012-12-19,88,79,70,72,70,66,94,69,46,29.83,29.78,29.74,19,7,6,12,5,,0.00,3,,54
2012-12-20,89,82,74,72,69,66,89,64,37,29.85,29.79,29.74,19,7,6,16,8,,0.00,2,,116
2012-12-21,91,82,72,72,68,63,94,62,32,29.84,29.77,29.68,19,7,5,18,8,,0.00,1,,133
2012-12-22,93,85,77,72,69,64,78,60,33,29.79,29.75,29.68,19,7,6,18,9,21,0.01,3,,136
2012-12-23,91,83,75,77,72,69,94,70,43,29.82,29.76,29.71,19,6,4,17,11,,0.00,4,Rain,147
2012-12-24,89,82,75,75,74,72,94,76,50,29.88,29.80,29.74,16,6,2,16,9,,0.04,5,Rain,131
2012-12-25,93,84,75,75,71,70,94,70,40,29.85,29.79,29.74,19,7,5,18,10,,0.08,4,Rain,143
2012-12-26,91,83,75,74,72,69,94,73,49,29.81,29.75,29.68,19,7,6,16,9,,0.01,4,Rain,131
2012-12-27,92,83,74,73,71,68,89,66,37,29.83,29.77,29.71,19,7,6,17,8,,0.00,4,,132
2012-12-28,93,84,76,74,72,70,89,69,40,29.85,29.79,29.74,19,7,3,17,10,,0.00,4,Rain,141
2012-12-29,92,83,74,73,70,66,83,64,36,29.83,29.78,29.71,19,7,6,18,9,,0.00,4,,138
2012-12-30,91,84,76,73,69,66,83,61,36,29.79,29.75,29.68,19,7,4,23,11,,0.02,4,Rain,151
2012-12-31,86,80,73,75,73,71,100,85,55,29.83,29.77,29.71,19,6,2,18,10,29,0.39,5,Rain,171